Time;durP1;ratioP1;P1;durP2;ratioP2;P2;SDS_P1;SDS_P2;PMS_P1;PMS_P2;Temp;Humidity;BMP_temperature;BMP_pressure;BME280_temperature;BME280_humidity;BME280_pressure;Samples;Min_cycle;Max_cycle;Signal;HPM_P1;HPM_P2
2023/02/26 00:01:01;;;;;;;40.83;22.30;;;13.40;1.00;;;;;;5113631;28;20043;-55
2023/02/26 00:03:26;;;;;;;31.88;22.02;;;13.40;1.00;;;;;;5109106;28;20549;-59
2023/02/26 00:05:52;;;;;;;34.78;22.20;;;13.30;1.00;;;;;;5113871;28;20351;-58
2023/02/26 00:08:18;;;;;;;32.30;21.80;;;13.30;1.00;;;;;;5122633;27;20027;-58
2023/02/26 00:10:43;;;;;;;34.40;21.52;;;13.30;1.00;;;;;;5110137;28;20032;-56
2023/02/26 00:13:10;;;;;;;41.90;22.00;;;13.30;1.00;;;;;;5118929;27;20039;-57
2023/02/26 00:15:36;;;;;;;37.05;23.42;;;13.20;1.00;;;;;;5117641;27;20035;-57
2023/02/26 00:18:06;;;;;;;43.75;24.23;;;13.30;1.00;;;;;;5117299;27;20093;-56
2023/02/26 00:20:33;;;;;;;35.22;21.23;;;13.30;1.00;;;;;;5109083;27;20057;-59
2023/02/26 00:22:58;;;;;;;28.58;20.67;;;13.20;1.00;;;;;;5114506;27;20023;-57
2023/02/26 00:25:24;;;;;;;32.47;21.20;;;13.30;1.00;;;;;;5112730;28;20047;-57
2023/02/26 00:27:50;;;;;;;35.92;22.23;;;13.20;1.00;;;;;;5113445;27;20034;-57
2023/02/26 00:30:16;;;;;;;38.60;22.50;;;13.10;1.00;;;;;;5111702;27;20473;-57
2023/02/26 00:32:43;;;;;;;36.42;22.30;;;13.20;1.00;;;;;;5124049;27;20020;-57
2023/02/26 00:35:12;;;;;;;33.47;22.55;;;13.20;1.00;;;;;;5114924;28;20028;-57
2023/02/26 00:38:01;;;;;;;37.42;22.13;;;13.10;1.00;;;;;;5120172;27;20038;-57
2023/02/26 00:40:42;;;;;;;35.95;23.00;;;13.10;1.00;;;;;;5116621;27;20035;-58
2023/02/26 00:43:13;;;;;;;39.70;21.90;;;13.10;1.00;;;;;;5102702;28;20027;-58
2023/02/26 00:45:50;;;;;;;36.70;23.25;;;13.10;1.00;;;;;;5109115;27;20127;-58
2023/02/26 00:48:43;;;;;;;28.98;20.20;;;13.10;1.00;;;;;;5122310;27;20092;-57
2023/02/26 00:51:29;;;;;;;36.10;22.60;;;13.00;1.00;;;;;;5121503;27;20477;-58
2023/02/26 00:54:04;;;;;;;33.47;21.75;;;13.00;1.00;;;;;;5114199;28;20454;-58
2023/02/26 00:56:30;;;;;;;33.35;22.27;;;13.00;1.00;;;;;;5101799;27;20094;-59
2023/02/26 00:58:56;;;;;;;36.05;22.67;;;13.00;1.00;;;;;;5117535;27;20023;-58
2023/02/26 01:01:22;;;;;;;37.55;23.67;;;13.00;1.00;;;;;;5115970;27;20105;-57
2023/02/26 01:03:48;;;;;;;36.60;23.63;;;13.00;1.00;;;;;;5123008;27;20414;-58
2023/02/26 01:06:19;;;;;;;36.38;23.77;;;13.00;1.00;;;;;;5112672;27;20035;-58
2023/02/26 01:09:04;;;;;;;33.80;21.95;;;13.00;1.00;;;;;;5114914;27;20035;-57
2023/02/26 01:11:33;;;;;;;37.40;21.42;;;12.90;1.00;;;;;;5114937;27;20031;-58
2023/02/26 01:13:59;;;;;;;40.72;24.35;;;12.90;1.00;;;;;;5121532;27;20042;-58
2023/02/26 01:16:29;;;;;;;38.20;23.88;;;12.90;1.00;;;;;;5101843;27;20035;-57
2023/02/26 01:19:14;;;;;;;38.67;23.35;;;12.80;1.00;;;;;;5119408;27;20031;-57
2023/02/26 01:21:47;;;;;;;33.53;22.95;;;12.80;1.00;;;;;;5095167;27;20078;-57
2023/02/26 01:24:15;;;;;;;39.30;23.85;;;12.80;1.00;;;;;;5113011;27;20106;-57
2023/02/26 01:26:41;;;;;;;36.55;22.58;;;12.80;1.00;;;;;;5122593;27;20119;-57
2023/02/26 01:29:07;;;;;;;39.00;23.20;;;12.70;1.00;;;;;;5120474;27;20147;-57
2023/02/26 01:31:42;;;;;;;34.17;24.20;;;12.70;1.00;;;;;;5107246;28;20058;-55
2023/02/26 01:34:25;;;;;;;39.15;24.92;;;12.70;1.00;;;;;;5114344;28;20027;-56
2023/02/26 01:37:45;;;;;;;37.90;24.38;;;12.70;1.00;;;;;;5117853;27;20039;-56
2023/02/26 01:40:31;;;;;;;36.65;22.75;;;12.70;1.00;;;;;;5063436;28;20044;-55
2023/02/26 01:43:05;;;;;;;32.53;21.88;;;12.60;1.00;;;;;;5124078;27;20030;-56
2023/02/26 01:45:35;;;;;;;26.27;17.77;;;12.60;1.00;;;;;;5122136;27;20113;-57
2023/02/26 01:48:06;;;;;;;39.28;24.10;;;12.50;1.00;;;;;;5111920;27;20027;-55
2023/02/26 01:50:34;;;;;;;32.40;23.02;;;12.50;1.00;;;;;;5115863;27;20092;-57
2023/02/26 01:53:12;;;;;;;37.95;25.40;;;12.50;1.00;;;;;;5112175;27;20258;-57
2023/02/26 01:55:42;;;;;;;39.08;23.50;;;12.50;1.00;;;;;;5115213;27;20050;-57
2023/02/26 01:58:08;;;;;;;37.30;23.45;;;12.60;1.00;;;;;;5114107;27;20122;-56
2023/02/26 02:00:33;;;;;;;35.60;24.23;;;12.50;1.00;;;;;;5113610;27;20149;-56
2023/02/26 02:03:03;;;;;;;34.88;23.80;;;12.40;1.00;;;;;;5110872;27;20083;-57
2023/02/26 02:05:38;;;;;;;35.45;24.60;;;12.50;1.00;;;;;;5111007;27;20358;-57
2023/02/26 02:08:04;;;;;;;35.90;23.75;;;12.40;1.00;;;;;;5116627;27;20031;-56
2023/02/26 02:10:31;;;;;;;39.22;24.40;;;12.40;1.00;;;;;;5115490;27;20036;-56
2023/02/26 02:13:24;;;;;;;39.13;23.98;;;12.40;1.00;;;;;;5122659;27;20106;-56
2023/02/26 02:16:14;;;;;;;40.00;23.58;;;12.30;1.00;;;;;;5099993;27;20106;-55
2023/02/26 02:18:46;;;;;;;36.45;25.20;;;12.20;1.00;;;;;;5110563;27;20023;-57
2023/02/26 02:21:53;;;;;;;42.42;25.95;;;12.30;1.00;;;;;;5107416;27;20400;-55
2023/02/26 02:24:27;;;;;;;37.80;24.38;;;12.20;1.00;;;;;;5097785;27;20031;-56
2023/02/26 02:26:58;;;;;;;45.13;24.08;;;12.20;1.00;;;;;;5108942;28;20062;-56
2023/02/26 02:29:37;;;;;;;36.10;24.05;;;12.20;1.00;;;;;;5111965;27;20028;-57
2023/02/26 02:32:28;;;;;;;36.70;23.40;;;12.20;1.00;;;;;;5108860;28;20038;-58
2023/02/26 02:35:08;;;;;;;38.40;24.48;;;12.20;1.00;;;;;;5117769;27;20035;-57
2023/02/26 02:37:40;;;;;;;44.85;25.35;;;12.20;1.00;;;;;;5115791;27;20098;-56
2023/02/26 02:40:10;;;;;;;37.35;25.08;;;12.20;1.00;;;;;;5116195;27;20031;-55
2023/02/26 02:43:01;;;;;;;35.05;23.58;;;12.10;1.00;;;;;;5112444;27;20066;-58
2023/02/26 02:45:30;;;;;;;37.75;24.05;;;12.10;1.00;;;;;;5117233;27;20039;-58
2023/02/26 02:48:01;;;;;;;38.83;25.05;;;12.10;1.00;;;;;;5119063;27;20035;-57
2023/02/26 02:50:50;;;;;;;41.53;24.40;;;12.00;1.00;;;;;;5111901;27;20023;-56
2023/02/26 02:53:37;;;;;;;36.85;24.73;;;12.00;1.00;;;;;;5111588;28;20096;-57
2023/02/26 02:56:18;;;;;;;33.95;23.40;;;12.00;1.00;;;;;;5110119;27;20044;-57
2023/02/26 02:58:51;;;;;;;35.28;22.40;;;12.00;1.00;;;;;;5110012;28;20039;-56
2023/02/26 03:01:20;;;;;;;37.03;24.98;;;12.00;1.00;;;;;;5110556;28;20042;-55
2023/02/26 03:04:02;;;;;;;34.95;22.58;;;12.00;1.00;;;;;;5112843;28;20035;-56
2023/02/26 03:06:28;;;;;;;36.80;23.88;;;11.90;1.00;;;;;;5117213;28;20080;-58
2023/02/26 03:08:54;;;;;;;37.58;22.40;;;11.90;1.00;;;;;;5110784;28;20378;-57
2023/02/26 03:11:20;;;;;;;31.85;22.52;;;11.90;1.00;;;;;;5115421;28;20032;-57
2023/02/26 03:13:47;;;;;;;37.55;23.25;;;11.90;1.00;;;;;;5094035;28;20020;-56
2023/02/26 03:16:24;;;;;;;35.70;24.17;;;11.90;1.00;;;;;;5102737;28;20408;-57
2023/02/26 03:18:56;;;;;;;36.25;23.98;;;12.00;1.00;;;;;;5114446;28;20035;-57
2023/02/26 03:21:33;;;;;;;38.75;24.00;;;11.90;1.00;;;;;;5105940;28;20110;-56
2023/02/26 03:24:23;;;;;;;37.75;23.33;;;11.90;1.00;;;;;;5109631;28;20019;-57
2023/02/26 03:26:57;;;;;;;39.70;23.77;;;11.90;1.00;;;;;;5113309;28;20039;-55
2023/02/26 03:29:52;;;;;;;38.75;25.02;;;11.90;1.00;;;;;;5119598;28;20023;-57
2023/02/26 03:32:44;;;;;;;41.45;24.17;;;11.90;1.00;;;;;;5119614;28;20530;-56
2023/02/26 03:35:14;;;;;;;37.35;22.95;;;11.90;1.00;;;;;;5098919;28;20043;-55
2023/02/26 03:37:53;;;;;;;37.72;23.67;;;11.80;1.00;;;;;;5122281;27;20156;-57
2023/02/26 03:40:29;;;;;;;36.08;22.35;;;11.90;1.00;;;;;;5118289;28;20042;-57
2023/02/26 03:43:03;;;;;;;30.13;19.55;;;11.80;1.00;;;;;;5097859;28;20115;-55
2023/02/26 03:45:32;;;;;;;32.50;19.20;;;11.80;1.00;;;;;;5120108;27;20024;-57
2023/02/26 03:48:00;;;;;;;26.05;17.50;;;11.80;1.00;;;;;;5122611;27;20029;-57
2023/02/26 03:50:38;;;;;;;28.02;18.25;;;11.90;1.00;;;;;;5097813;28;20024;-57
2023/02/26 03:53:08;;;;;;;22.85;15.60;;;11.80;1.00;;;;;;5096746;28;20024;-56
2023/02/26 03:55:36;;;;;;;26.25;16.02;;;11.70;1.00;;;;;;5115745;28;20079;-56
2023/02/26 03:58:02;;;;;;;25.77;16.55;;;11.80;1.00;;;;;;5117822;27;20031;-56
2023/02/26 04:00:31;;;;;;;21.20;14.95;;;11.80;1.00;;;;;;5119993;27;20063;-56
2023/02/26 04:03:06;;;;;;;25.40;13.55;;;11.70;1.00;;;;;;5114936;27;20504;-56
2023/02/26 04:05:32;;;;;;;;;;;11.60;1.00;;;;;;5115365;28;20508;-56
2023/02/26 04:07:58;;;;;;;19.13;13.30;;;11.60;1.00;;;;;;5116023;27;19908;-55
2023/02/26 04:10:44;;;;;;;22.60;12.90;;;11.60;1.00;;;;;;5114158;28;20032;-55
2023/02/26 04:13:10;;;;;;;29.20;16.27;;;11.60;1.00;;;;;;5119897;27;20453;-55
2023/02/26 04:15:35;;;;;;;25.65;17.60;;;11.50;1.00;;;;;;5115009;27;20193;-56
2023/02/26 04:18:01;;;;;;;26.90;17.08;;;11.40;1.00;;;;;;5114352;27;20066;-56
2023/02/26 04:20:27;;;;;;;28.70;17.33;;;11.40;1.00;;;;;;5121196;27;20045;-56
2023/02/26 04:22:53;;;;;;;28.08;18.70;;;11.30;1.00;;;;;;5122357;27;20102;-56
2023/02/26 04:25:18;;;;;;;32.85;20.70;;;11.40;1.00;;;;;;5097035;28;20473;-56
2023/02/26 04:27:44;;;;;;;26.13;18.77;;;11.30;1.00;;;;;;5114033;27;20024;-56
2023/02/26 04:30:10;;;;;;;31.60;19.73;;;11.40;1.00;;;;;;5122490;27;20031;-55
2023/02/26 04:32:36;;;;;;;27.77;20.70;;;11.30;1.00;;;;;;5120011;27;20381;-55
2023/02/26 04:35:02;;;;;;;37.25;21.48;;;11.20;1.00;;;;;;5115037;27;20032;-56
2023/02/26 04:37:27;;;;;;;34.80;22.77;;;11.20;1.00;;;;;;5113543;28;20032;-56
2023/02/26 04:39:53;;;;;;;34.22;23.58;;;11.30;1.00;;;;;;5113913;28;20099;-54
2023/02/26 04:42:18;;;;;;;41.75;26.17;;;11.30;1.00;;;;;;5114079;27;20031;-54
2023/02/26 04:44:44;;;;;;;44.40;26.75;;;11.30;1.00;;;;;;5114535;27;20039;-55
2023/02/26 04:47:09;;;;;;;49.47;30.05;;;11.30;1.00;;;;;;5116579;27;20063;-54
2023/02/26 04:49:35;;;;;;;53.20;31.80;;;11.30;1.00;;;;;;5114059;28;20583;-57
2023/02/26 04:52:01;;;;;;;53.60;31.15;;;11.20;1.00;;;;;;5118506;27;21642;-55
2023/02/26 04:54:26;;;;;;;48.95;31.50;;;11.20;1.00;;;;;;5112406;27;20469;-53
2023/02/26 04:56:52;;;;;;;49.85;31.42;;;11.20;1.00;;;;;;5119684;27;20082;-55
2023/02/26 04:59:17;;;;;;;57.75;33.55;;;11.20;1.00;;;;;;5113640;27;20368;-55
2023/02/26 05:01:43;;;;;;;51.00;31.45;;;11.10;1.00;;;;;;5117398;27;20036;-56
2023/02/26 05:04:09;;;;;;;57.90;34.42;;;11.30;1.00;;;;;;5123909;27;20477;-56
2023/02/26 05:06:34;;;;;;;61.67;35.72;;;11.30;1.00;;;;;;5114831;28;20023;-54
2023/02/26 05:09:00;;;;;;;59.72;36.08;;;11.40;1.00;;;;;;5112179;28;20157;-54
2023/02/26 05:11:26;;;;;;;60.60;36.33;;;11.30;1.00;;;;;;5125117;27;20023;-55
2023/02/26 05:13:51;;;;;;;56.15;34.08;;;11.30;1.00;;;;;;5128517;27;20476;-56
2023/02/26 05:16:17;;;;;;;57.03;34.80;;;11.30;1.00;;;;;;5114003;27;20024;-54
2023/02/26 05:18:42;;;;;;;58.83;35.70;;;11.40;1.00;;;;;;5093952;28;20103;-55
2023/02/26 05:21:08;;;;;;;62.65;30.42;;;11.40;1.00;;;;;;5114878;27;20118;-55
2023/02/26 05:23:34;;;;;;;44.15;27.00;;;11.30;1.00;;;;;;5124841;27;20391;-55
2023/02/26 05:25:59;;;;;;;40.65;25.25;;;11.20;1.00;;;;;;5113489;28;20032;-56
2023/02/26 05:28:26;;;;;;;43.42;23.55;;;11.20;1.00;;;;;;5110849;27;20030;-56
2023/02/26 05:30:52;;;;;;;34.00;18.88;;;11.30;1.00;;;;;;5116508;27;20035;-57
2023/02/26 05:33:18;;;;;;;21.65;12.98;;;11.20;1.00;;;;;;5120551;27;20521;-56
2023/02/26 05:35:45;;;;;;;15.60;8.38;;;11.20;1.00;;;;;;5113292;28;20374;-57
2023/02/26 05:38:10;;;;;;;13.88;7.20;;;11.00;1.00;;;;;;5119297;27;20027;-57
2023/02/26 05:40:36;;;;;;;16.70;6.45;;;11.10;1.00;;;;;;5113363;27;20040;-57
2023/02/26 05:43:01;;;;;;;11.95;4.75;;;11.00;1.00;;;;;;5120065;27;20136;-55
2023/02/26 05:45:27;;;;;;;8.15;3.42;;;11.10;1.00;;;;;;5111161;27;20441;-57
2023/02/26 05:47:52;;;;;;;6.78;2.78;;;11.00;1.00;;;;;;5116899;27;20118;-56
2023/02/26 05:50:18;;;;;;;4.13;2.10;;;11.00;1.00;;;;;;5109104;27;20020;-54
2023/02/26 05:52:44;;;;;;;5.88;2.50;;;11.00;1.00;;;;;;5122593;27;20066;-57
2023/02/26 05:55:09;;;;;;;5.75;2.20;;;11.00;1.00;;;;;;5116601;27;20496;-56
2023/02/26 05:57:35;;;;;;;5.28;2.72;;;11.00;1.00;;;;;;5113575;28;20035;-56
2023/02/26 06:00:01;;;;;;;7.60;1.70;;;10.90;1.00;;;;;;5112787;27;20035;-55
2023/02/26 06:02:26;;;;;;;3.55;2.05;;;10.90;1.00;;;;;;5117648;27;20037;-55
2023/02/26 06:04:52;;;;;;;5.35;1.88;;;10.80;1.00;;;;;;5112662;28;20047;-56
2023/02/26 06:07:18;;;;;;;2.33;1.20;;;10.80;1.00;;;;;;5099495;27;20039;-56
2023/02/26 06:09:43;;;;;;;6.72;1.42;;;10.80;1.00;;;;;;5110968;27;20092;-57
2023/02/26 06:12:09;;;;;;;2.67;1.23;;;10.80;1.00;;;;;;5125776;27;20023;-55
2023/02/26 06:14:35;;;;;;;2.30;1.00;;;11.00;1.00;;;;;;5111938;27;20099;-57
2023/02/26 06:17:02;;;;;;;3.28;1.08;;;10.80;1.00;;;;;;5101023;27;20056;-57
2023/02/26 06:19:28;;;;;;;6.65;1.00;;;10.80;1.00;;;;;;5110452;27;20027;-56
2023/02/26 06:21:54;;;;;;;1.83;0.75;;;10.60;1.00;;;;;;5092869;28;20049;-58
2023/02/26 06:24:19;;;;;;;2.67;1.05;;;10.70;1.00;;;;;;5107554;27;20688;-54
2023/02/26 06:26:45;;;;;;;5.70;0.95;;;10.80;1.00;;;;;;5125416;27;20031;-56
2023/02/26 06:29:11;;;;;;;2.30;1.00;;;10.50;1.00;;;;;;5117136;27;20035;-55
2023/02/26 06:31:36;;;;;;;1.58;0.70;;;10.60;1.00;;;;;;5114755;27;20088;-55
2023/02/26 06:34:02;;;;;;;1.13;0.63;;;10.60;1.00;;;;;;5103157;28;20028;-55
2023/02/26 06:36:28;;;;;;;7.85;1.02;;;10.70;1.00;;;;;;5116920;27;20027;-55
2023/02/26 06:38:53;;;;;;;3.38;0.70;;;10.50;1.00;;;;;;5117628;27;20020;-56
2023/02/26 06:41:19;;;;;;;3.40;0.60;;;10.50;1.00;;;;;;5120859;27;20080;-55
2023/02/26 06:43:45;;;;;;;2.97;0.70;;;10.30;1.00;;;;;;5121524;27;20145;-55
2023/02/26 06:46:11;;;;;;;1.15;0.63;;;10.30;1.00;;;;;;5117760;27;20054;-57
2023/02/26 06:48:36;;;;;;;3.13;0.43;;;10.30;1.00;;;;;;5119376;27;20024;-55
2023/02/26 06:51:02;;;;;;;1.95;0.60;;;10.40;1.00;;;;;;5114517;27;20030;-56
2023/02/26 06:53:28;;;;;;;2.72;0.60;;;10.40;1.00;;;;;;5117433;27;20024;-53
2023/02/26 06:55:53;;;;;;;1.02;0.60;;;10.40;1.00;;;;;;5110816;28;20446;-56
2023/02/26 06:58:20;;;;;;;1.40;0.68;;;10.40;1.00;;;;;;5115242;27;20115;-55
2023/02/26 07:00:46;;;;;;;1.23;0.52;;;10.10;1.00;;;;;;5107286;28;20089;-55
2023/02/26 07:06:33;;;;;;;2.40;0.73;;;10.00;1.00;;;;;;5108570;28;20112;-56
2023/02/26 07:08:59;;;;;;;2.17;0.90;;;9.70;1.00;;;;;;5119917;28;20532;-52
2023/02/26 07:11:24;;;;;;;2.30;0.60;;;9.60;99.90;;;;;;5122332;28;20027;-53
2023/02/26 07:13:50;;;;;;;2.17;0.70;;;9.50;99.90;;;;;;5117727;28;20092;-54
2023/02/26 07:16:16;;;;;;;3.93;0.80;;;9.50;99.90;;;;;;5119252;27;20035;-52
2023/02/26 07:18:42;;;;;;;1.87;0.70;;;9.50;99.90;;;;;;5123955;27;20046;-55
2023/02/26 07:21:07;;;;;;;2.78;0.73;;;9.40;99.90;;;;;;5115396;28;20027;-54
2023/02/26 07:23:33;;;;;;;1.80;0.50;;;9.40;99.90;;;;;;5120472;27;20101;-55
2023/02/26 07:25:59;;;;;;;3.57;0.60;;;9.10;43.40;;;;;;5120050;27;20362;-50
2023/02/26 07:28:25;;;;;;;1.67;0.33;;;9.10;1.00;;;;;;5115581;27;20081;-54
2023/02/26 07:30:53;;;;;;;0.57;0.30;;;9.00;1.00;;;;;;5095369;27;20496;-55
2023/02/26 07:43:45;;;;;;;4.23;0.50;;;8.80;13.30;;;;;;5096688;28;20389;-55
2023/02/26 07:49:33;;;;;;;0.47;0.27;;;8.60;99.90;;;;;;5117609;27;20053;-55
2023/02/26 07:51:59;;;;;;;2.33;0.40;;;8.20;99.90;;;;;;5123878;27;20035;-55
2023/02/26 07:54:25;;;;;;;1.50;0.30;;;7.90;99.90;;;;;;5115258;27;20518;-55
2023/02/26 07:56:50;;;;;;;1.63;0.20;;;8.20;99.90;;;;;;5128671;27;20050;-53
2023/02/26 07:59:16;;;;;;;1.20;0.23;;;8.20;99.90;;;;;;5119880;27;20449;-55
2023/02/26 08:01:42;;;;;;;0.67;0.57;;;8.10;99.90;;;;;;5116491;27;20484;-54
2023/02/26 08:04:07;;;;;;;1.30;0.60;;;7.90;99.90;;;;;;5119893;27;20484;-55
2023/02/26 08:06:34;;;;;;;1.47;0.57;;;8.10;99.90;;;;;;5118683;27;20023;-55
2023/02/26 08:09:00;;;;;;;0.47;0.30;;;8.40;99.90;;;;;;5112911;28;20012;-54
2023/02/26 08:11:26;;;;;;;1.67;0.27;;;7.90;99.90;;;;;;5121901;27;20035;-55
2023/02/26 08:13:52;;;;;;;2.87;0.30;;;7.80;99.90;;;;;;5120427;27;20122;-55
2023/02/26 08:16:19;;;;;;;1.93;0.40;;;7.90;99.90;;;;;;5108240;27;20049;-55
2023/02/26 08:18:44;;;;;;;1.57;0.47;;;8.10;99.90;;;;;;5112034;28;20362;-55
2023/02/26 08:21:10;;;;;;;0.87;0.30;;;7.90;99.90;;;;;;5112213;28;20150;-56
2023/02/26 08:23:36;;;;;;;1.43;0.20;;;8.20;99.90;;;;;;5113539;28;20363;-55
2023/02/26 08:26:04;;;;;;;1.33;0.50;;;8.20;99.90;;;;;;5116821;27;20038;-55
2023/02/26 08:28:30;;;;;;;1.07;0.33;;;8.30;99.90;;;;;;5109353;27;20020;-55
2023/02/26 08:30:56;;;;;;;2.30;0.50;;;8.30;99.90;;;;;;5109382;28;20035;-53
2023/02/26 08:33:58;;;;;;;0.73;0.50;;;8.20;99.90;;;;;;5105327;27;20392;-54
2023/02/26 08:36:24;;;;;;;0.60;0.37;;;8.20;99.90;;;;;;5114366;28;20124;-56
2023/02/26 08:38:50;;;;;;;0.40;0.40;;;8.10;99.90;;;;;;5109045;28;20016;-56
2023/02/26 08:41:16;;;;;;;1.43;0.57;;;8.30;99.90;;;;;;5113273;28;20032;-55
2023/02/26 08:43:42;;;;;;;1.50;0.77;;;8.30;99.90;;;;;;5115047;28;20020;-56
2023/02/26 08:46:07;;;;;;;2.27;0.50;;;8.40;99.90;;;;;;5109919;28;20035;-56
2023/02/26 08:48:33;;;;;;;0.97;0.60;;;8.40;99.90;;;;;;5114381;28;20019;-56
2023/02/26 08:50:58;;;;;;;3.47;0.40;;;8.50;99.90;;;;;;5096757;28;20490;-55
2023/02/26 08:53:24;;;;;;;1.53;0.47;;;8.50;99.90;;;;;;5115069;28;20031;-55
2023/02/26 08:55:51;;;;;;;1.03;0.60;;;8.50;99.90;;;;;;5114035;28;20042;-57
2023/02/26 08:58:17;;;;;;;0.47;0.40;;;8.50;99.90;;;;;;5115235;28;20047;-56
2023/02/26 09:00:43;;;;;;;0.70;0.60;;;8.50;99.90;;;;;;5109606;28;20031;-56
2023/02/26 09:03:09;;;;;;;0.80;0.60;;;8.70;99.90;;;;;;5095204;28;20036;-56
2023/02/26 09:05:34;;;;;;;2.20;0.40;;;8.60;99.90;;;;;;5112736;28;20022;-56
2023/02/26 09:08:00;;;;;;;2.50;1.90;;;8.50;99.90;;;;;;5114738;28;20376;-55
2023/02/26 09:10:26;;;;;;;2.10;0.87;;;8.50;99.90;;;;;;5112881;28;20034;-57
2023/02/26 09:12:52;;;;;;;3.87;2.40;;;8.40;99.90;;;;;;5114835;28;20030;-55
2023/02/26 09:15:18;;;;;;;1.43;0.83;;;8.60;99.90;;;;;;5110047;28;20027;-56
2023/02/26 09:17:44;;;;;;;1.20;0.47;;;8.60;99.90;;;;;;5114482;28;20028;-55
2023/02/26 09:20:11;;;;;;;0.70;0.43;;;8.20;99.90;;;;;;5113719;28;20035;-56
2023/02/26 09:22:37;;;;;;;1.03;0.67;;;8.30;99.90;;;;;;5114495;28;20485;-56
2023/02/26 09:25:03;;;;;;;1.03;0.60;;;8.50;99.90;;;;;;5114216;28;20035;-55
2023/02/26 09:27:29;;;;;;;2.80;1.30;;;8.00;99.90;;;;;;5114637;28;20028;-56
2023/02/26 09:29:54;;;;;;;4.93;1.47;;;7.90;99.90;;;;;;5111951;28;20034;-57
2023/02/26 09:32:20;;;;;;;0.93;0.67;;;8.30;99.90;;;;;;5114782;28;20024;-56
2023/02/26 09:34:45;;;;;;;1.33;0.70;;;8.00;99.90;;;;;;5113491;28;20028;-57
2023/02/26 09:37:11;;;;;;;1.20;0.80;;;7.90;99.90;;;;;;5111058;28;20038;-55
2023/02/26 09:39:37;;;;;;;2.03;0.80;;;8.00;99.90;;;;;;5111965;28;20049;-56
2023/02/26 09:42:25;;;;;;;0.40;0.40;;;7.80;99.90;;;;;;5114197;28;20059;-56
2023/02/26 09:44:52;;;;;;;1.60;0.50;;;7.90;99.90;;;;;;5111258;28;20504;-55
2023/02/26 09:47:38;;;;;;;1.60;0.77;;;7.80;99.90;;;;;;5114127;28;20015;-56
2023/02/26 09:50:15;;;;;;;0.97;0.40;;;7.90;99.90;;;;;;5113351;28;20039;-56
2023/02/26 09:52:47;;;;;;;2.23;0.67;;;8.00;99.90;;;;;;5114499;28;20023;-56
2023/02/26 09:55:30;;;;;;;2.60;0.57;;;8.00;99.90;;;;;;5109897;28;20032;-56
2023/02/26 09:58:02;;;;;;;0.97;0.63;;;8.10;99.90;;;;;;5114234;28;20131;-57
2023/02/26 10:00:46;;;;;;;1.70;0.50;;;8.20;99.90;;;;;;5105198;28;20179;-54
2023/02/26 10:03:22;;;;;;;1.13;0.32;;;8.30;99.90;;;;;;5104455;28;20031;-55
2023/02/26 10:06:12;;;;;;;1.53;0.27;;;8.20;66.30;;;;;;5112762;28;20065;-56
2023/02/26 10:09:05;;;;;;;1.00;0.30;;;8.10;21.80;;;;;;5082110;28;20436;-55
2023/02/26 10:11:47;;;;;;;1.60;0.60;;;8.10;14.70;;;;;;5091056;28;20314;-56
2023/02/26 10:14:31;;;;;;;2.20;0.57;;;8.40;17.50;;;;;;5111609;28;20449;-56
2023/02/26 10:17:13;;;;;;;0.85;0.60;;;8.40;9.60;;;;;;5112571;28;20028;-52
2023/02/26 10:19:43;;;;;;;1.43;0.67;;;8.70;1.00;;;;;;5105740;28;20027;-56
2023/02/26 10:22:58;;;;;;;0.97;0.50;;;8.90;1.00;;;;;;5106086;28;20109;-54
2023/02/26 10:25:34;;;;;;;2.07;0.80;;;8.90;1.00;;;;;;5051540;28;20506;-56
2023/02/26 10:28:27;;;;;;;1.40;0.93;;;8.90;1.00;;;;;;5094275;28;20484;-55
2023/02/26 10:31:04;;;;;;;1.13;0.67;;;9.10;1.00;;;;;;5112538;28;20034;-56
2023/02/26 10:34:01;;;;;;;2.33;0.43;;;9.00;1.00;;;;;;5113300;28;20452;-54
2023/02/26 10:36:56;;;;;;;1.27;1.00;;;8.90;1.00;;;;;;5096473;28;20481;-56
2023/02/26 10:39:34;;;;;;;1.38;0.47;;;9.20;1.00;;;;;;5111560;28;20028;-57
2023/02/26 10:42:08;;;;;;;0.47;0.30;;;9.10;1.00;;;;;;5113034;28;20027;-55
2023/02/26 10:44:49;;;;;;;0.68;0.40;;;8.90;1.00;;;;;;5110598;28;20024;-54
2023/02/26 10:47:23;;;;;;;1.53;0.40;;;8.80;9.20;;;;;;5112196;28;20024;-56
2023/02/26 10:49:55;;;;;;;1.00;0.50;;;8.90;1.00;;;;;;5111181;28;20015;-57
2023/02/26 10:52:25;;;;;;;0.83;0.77;;;8.80;1.00;;;;;;5112889;28;20024;-55
2023/02/26 10:55:13;;;;;;;1.50;0.93;;;9.00;1.00;;;;;;5111874;28;20035;-51
2023/02/26 10:57:46;;;;;;;1.27;0.50;;;8.90;1.00;;;;;;5111751;28;20031;-49
2023/02/26 11:00:19;;;;;;;1.33;0.87;;;8.90;1.00;;;;;;5109137;28;20127;-51
2023/02/26 11:02:48;;;;;;;0.80;0.57;;;8.90;1.00;;;;;;5108421;27;20028;-56
2023/02/26 11:05:23;;;;;;;1.20;1.07;;;8.90;1.00;;;;;;5106033;28;20028;-51
2023/02/26 11:07:54;;;;;;;2.23;1.27;;;9.00;1.00;;;;;;5108867;28;20023;-50
2023/02/26 11:10:23;;;;;;;0.90;0.90;;;9.10;1.00;;;;;;5086976;28;20084;-52
2023/02/26 11:12:51;;;;;;;1.00;0.70;;;9.10;1.00;;;;;;5099679;28;20031;-52
2023/02/26 11:15:21;;;;;;;1.23;0.90;;;8.90;1.00;;;;;;5109847;28;20052;-55
2023/02/26 11:17:51;;;;;;;2.13;0.90;;;8.90;1.00;;;;;;5098970;28;21269;-50
2023/02/26 11:20:29;;;;;;;1.53;0.90;;;8.90;1.00;;;;;;5111882;28;20020;-52
2023/02/26 11:22:59;;;;;;;2.63;1.00;;;9.00;1.00;;;;;;5124917;28;20023;-51
2023/02/26 11:25:28;;;;;;;1.70;1.00;;;9.00;1.00;;;;;;5111149;28;20020;-52
2023/02/26 11:28:19;;;;;;;2.73;1.17;;;9.10;1.00;;;;;;5077879;28;20070;-50
2023/02/26 11:30:47;;;;;;;1.73;1.10;;;9.20;1.00;;;;;;5107282;28;20047;-53
2023/02/26 11:33:21;;;;;;;2.20;1.37;;;9.10;1.00;;;;;;5112425;28;20015;-53
2023/02/26 11:35:48;;;;;;;2.43;1.40;;;9.10;1.00;;;;;;5111554;28;20061;-50
2023/02/26 11:38:19;;;;;;;1.77;0.80;;;9.10;1.00;;;;;;5111567;28;20064;-54
2023/02/26 11:40:48;;;;;;;3.23;1.20;;;9.10;1.00;;;;;;5104693;28;20028;-52
2023/02/26 11:43:20;;;;;;;1.03;0.77;;;9.20;1.00;;;;;;5126054;28;20107;-53
2023/02/26 11:45:56;;;;;;;2.33;1.33;;;9.20;1.00;;;;;;5087716;28;20023;-53
2023/02/26 11:48:25;;;;;;;2.10;1.30;;;9.30;1.00;;;;;;5091550;28;20077;-48
2023/02/26 11:50:55;;;;;;;1.97;1.70;;;9.40;1.00;;;;;;5107178;28;20110;-46
2023/02/26 11:53:31;;;;;;;3.03;1.43;;;9.40;1.00;;;;;;5111298;28;20035;-46
2023/02/26 11:56:25;;;;;;;1.30;1.00;;;9.40;1.00;;;;;;5107080;28;20039;-47
2023/02/26 11:58:54;;;;;;;2.30;1.27;;;9.40;1.00;;;;;;5086571;28;20501;-46
2023/02/26 12:01:21;;;;;;;2.80;1.23;;;9.40;1.00;;;;;;5113947;28;20026;-47
2023/02/26 12:03:49;;;;;;;1.73;1.03;;;9.10;1.00;;;;;;5112334;28;20011;-46
2023/02/26 12:06:59;;;;;;;3.17;1.00;;;9.00;1.00;;;;;;5114965;28;20438;-46
2023/02/26 12:09:26;;;;;;;1.83;0.90;;;9.00;1.00;;;;;;5103328;28;20036;-47
2023/02/26 12:12:03;;;;;;;2.93;1.13;;;9.00;1.00;;;;;;5115350;28;20034;-46
2023/02/26 12:14:42;;;;;;;1.43;0.70;;;8.90;1.00;;;;;;5113073;28;20028;-46
2023/02/26 12:17:14;;;;;;;1.50;1.23;;;9.00;1.00;;;;;;5114488;28;20027;-47
2023/02/26 12:20:16;;;;;;;1.23;0.97;;;8.70;1.00;;;;;;5100246;28;20050;-45
2023/02/26 12:22:53;;;;;;;2.47;1.03;;;8.70;1.00;;;;;;5113660;28;20035;-46
2023/02/26 12:25:39;;;;;;;3.00;1.63;;;8.80;99.90;;;;;;5111986;28;20178;-47
2023/02/26 12:31:39;;;;;;;1.57;1.20;;;8.60;41.10;;;;;;5102752;28;20087;-48
2023/02/26 12:34:23;;;;;;;1.37;1.20;;;8.60;1.00;;;;;;5115533;28;20452;-49
2023/02/26 12:37:15;;;;;;;1.53;1.17;;;8.70;1.00;;;;;;5096857;28;20032;-51
2023/02/26 12:40:15;;;;;;;1.10;1.00;;;8.70;1.00;;;;;;5101582;28;20023;-48
2023/02/26 12:42:50;;;;;;;3.30;1.20;;;8.70;1.00;;;;;;5114265;28;20092;-51
2023/02/26 12:45:40;;;;;;;;;;;8.70;1.00;;;;;;5115741;28;20027;-51
2023/02/26 12:48:11;;;;;;;1.00;0.90;;;8.80;1.00;;;;;;5107680;28;19907;-48
2023/02/26 12:51:01;;;;;;;4.07;1.93;;;8.70;1.00;;;;;;5114244;28;20054;-46
2023/02/26 12:54:11;;;;;;;2.17;1.27;;;8.90;1.00;;;;;;5104158;28;20020;-50
2023/02/26 12:57:04;;;;;;;2.30;0.90;;;8.90;1.00;;;;;;5090917;28;20073;-48
2023/02/26 12:59:55;;;;;;;2.37;1.63;;;8.90;1.00;;;;;;5114359;28;20023;-47
2023/02/26 13:02:45;;;;;;;2.33;1.73;;;8.80;1.00;;;;;;5113444;28;20138;-50
2023/02/26 13:05:45;;;;;;;2.60;1.90;;;8.80;1.00;;;;;;5101720;28;20072;-49
2023/02/26 13:08:16;;;;;;;1.80;1.37;;;9.00;1.00;;;;;;5112420;28;20054;-47
2023/02/26 13:10:54;;;;;;;1.40;1.10;;;9.00;1.00;;;;;;5114579;28;20039;-46
2023/02/26 13:13:35;;;;;;;1.13;0.87;;;9.10;1.00;;;;;;5104888;28;20103;-48
2023/02/26 13:16:07;;;;;;;2.07;1.57;;;9.00;1.00;;;;;;5085970;28;20023;-49
2023/02/26 13:18:45;;;;;;;4.00;1.40;;;9.00;1.00;;;;;;5109797;28;20113;-47
2023/02/26 13:21:24;;;;;;;1.27;1.17;;;9.00;1.00;;;;;;5114588;28;20031;-48
2023/02/26 13:24:11;;;;;;;2.33;1.63;;;9.10;1.00;;;;;;5111497;28;20365;-50
2023/02/26 13:26:37;;;;;;;3.70;1.20;;;9.10;1.00;;;;;;5083238;28;20319;-49
2023/02/26 13:29:20;;;;;;;1.50;1.10;;;9.10;1.00;;;;;;5101094;28;20032;-48
2023/02/26 13:31:59;;;;;;;1.50;1.17;;;9.20;1.00;;;;;;5106224;28;20367;-47
2023/02/26 13:34:41;;;;;;;1.70;1.27;;;9.30;1.00;;;;;;5099860;28;20019;-46
2023/02/26 13:37:21;;;;;;;2.20;1.47;;;9.10;1.00;;;;;;5105453;28;20085;-47